Darstellungsparameter: Aktuell verwendete Einstellungen:
Skalierung der Graphiken ... ?
xyx+y,   Skalierungsfaktor:      Skalierung: Modus: x, Faktor: 1
Darstellungszeitraum ... ?
Vom - - bis: - -   Zeitraum: 14.02.2017 - 14.02.2017
Min/Max/Avg-Anzeige ... ?
Zeige MMA aktuell
Zeige MMA Monat
Zeige MMA alles
Zeige --A aktuell
Zeige --A Monat
Zeige --A alles
Keine MMA-Anzeige
MMA:
Keine MMA-Graphiken
MMA-Basis: 14.02.2017 - 14.02.2017
Quicknavigation für Darstellung... ?
Tage:      1T, 2T, 3T, 5T -1T -2T -3T -5T +1T +2T +3T +5T
Wochen: 1W, 2W, 3W -1W -2W -3W +1W +2W +3W
Monate: 1M, 3M, 6M -1M -3M -6M +1M +3M +6M
Jahre:    1J, 3J, 5J, 10J -1J -3J -5J -10J +1J +3J +5J +10J
Nutze für die Darstellung ... ?
Originaldaten oder Mittelwerte auf ...
Stundenbasis Tagesbasis Wochenbasis
Monatsbasis Jahresbasis      Datenbasis: Original-Daten
Darstellen als:
Statistik (Auto) Statistik J:M      Darstellung:
Zur Graphik,    zurück zur Übersicht aller Sensoren.
 
Tabellarische Datenbersicht: ?
 
Sensor: Nr:Datum:Temp:Feuchte:Taupunkt:
Aussen-T/F 1 14-02-2017 00:00:00 0.5 C 88 % -1.25 C
2 14-02-2017 00:05:00 0.4 C 88 % -1.35 C
3 14-02-2017 00:10:00 0.3 C 88 % -1.45 C
4 14-02-2017 00:15:00 0.3 C 89 % -1.29 C
5 14-02-2017 00:20:00 0.2 C 89 % -1.39 C
6 14-02-2017 00:25:00 0.2 C 89 % -1.39 C
7 14-02-2017 00:30:00 0.3 C 89 % -1.29 C
8 14-02-2017 00:35:00 0.5 C 89 % -1.1 C
9 14-02-2017 00:40:00 0.7 C 88 % -1.05 C
10 14-02-2017 00:45:00 0.6 C 87 % -1.31 C
11 14-02-2017 00:50:00 0.6 C 87 % -1.31 C
12 14-02-2017 00:55:00 0.7 C 87 % -1.21 C
13 14-02-2017 01:00:00 0.8 C 86 % -1.27 C
14 14-02-2017 01:05:00 0.8 C 86 % -1.27 C
15 14-02-2017 01:10:00 0.9 C 85 % -1.33 C
16 14-02-2017 01:15:00 0.9 C 85 % -1.33 C
17 14-02-2017 01:20:00 1 C 84 % -1.39 C
18 14-02-2017 01:25:00 0.8 C 84 % -1.59 C
19 14-02-2017 01:30:00 0.7 C 85 % -1.53 C
20 14-02-2017 01:35:00 0.5 C 85 % -1.72 C
21 14-02-2017 01:40:00 0.3 C 86 % -1.76 C
22 14-02-2017 01:45:00 0.2 C 87 % -1.7 C
23 14-02-2017 01:50:00 0.1 C 87 % -1.8 C
24 14-02-2017 01:55:00 0.2 C 88 % -1.55 C
25 14-02-2017 02:00:00 0.2 C 87 % -1.7 C
Sensor: Nr:Datum:Temp:Feuchte:Taupunkt:
Aussen-T/F 26 14-02-2017 02:05:00 0.2 C 87 % -1.7 C
27 14-02-2017 02:10:00 0.1 C 87 % -1.8 C
28 14-02-2017 02:15:00 0 C 87 % -1.9 C
29 14-02-2017 02:20:00 0 C 88 % -1.74 C
30 14-02-2017 02:25:00 -0.1 C 88 % -1.84 C
31 14-02-2017 02:30:00 -0.1 C 88 % -1.84 C
32 14-02-2017 02:35:00 -0.2 C 88 % -1.94 C
33 14-02-2017 02:40:00 -0.2 C 88 % -1.94 C
34 14-02-2017 02:45:00 -0.2 C 88 % -1.94 C
35 14-02-2017 02:50:00 -0.3 C 88 % -2.04 C
36 14-02-2017 02:55:00 -0.3 C 88 % -2.04 C
37 14-02-2017 03:00:00 -0.4 C 88 % -2.14 C
38 14-02-2017 03:05:00 -0.5 C 89 % -2.09 C
39 14-02-2017 03:10:00 -0.5 C 89 % -2.09 C
40 14-02-2017 03:15:00 -0.6 C 89 % -2.18 C
41 14-02-2017 03:20:00 -0.6 C 89 % -2.18 C
42 14-02-2017 03:25:00 -0.6 C 89 % -2.18 C
43 14-02-2017 03:30:00 -0.6 C 89 % -2.18 C
44 14-02-2017 03:35:00 -0.7 C 89 % -2.28 C
45 14-02-2017 03:40:00 -0.7 C 89 % -2.28 C
46 14-02-2017 03:45:00 -0.7 C 90 % -2.13 C
47 14-02-2017 03:50:00 -0.7 C 90 % -2.13 C
48 14-02-2017 03:55:00 -0.7 C 90 % -2.13 C
49 14-02-2017 04:00:00 -0.7 C 90 % -2.13 C
50 14-02-2017 04:05:00 -0.7 C 90 % -2.13 C
Sensor: Nr:Datum:Temp:Feuchte:Taupunkt:
Aussen-T/F 51 14-02-2017 04:10:00 -0.7 C 89 % -2.28 C
52 14-02-2017 04:15:00 -0.7 C 90 % -2.13 C
53 14-02-2017 04:20:00 -0.7 C 89 % -2.28 C
54 14-02-2017 04:25:00 -0.7 C 89 % -2.28 C
55 14-02-2017 04:30:00 -0.8 C 89 % -2.38 C
56 14-02-2017 04:35:00 -0.8 C 89 % -2.38 C
57 14-02-2017 04:40:00 -0.8 C 89 % -2.38 C
58 14-02-2017 04:45:00 -0.8 C 90 % -2.23 C
59 14-02-2017 04:50:00 -0.8 C 90 % -2.23 C
60 14-02-2017 04:55:00 -0.8 C 90 % -2.23 C
61 14-02-2017 05:00:00 -0.8 C 90 % -2.23 C
62 14-02-2017 05:05:00 -0.8 C 90 % -2.23 C
63 14-02-2017 05:10:00 -0.9 C 89 % -2.48 C
64 14-02-2017 05:15:00 -0.9 C 89 % -2.48 C
65 14-02-2017 05:20:00 -1 C 89 % -2.58 C
66 14-02-2017 05:25:00 -1.1 C 89 % -2.68 C
67 14-02-2017 05:30:00 -1.2 C 89 % -2.78 C
68 14-02-2017 05:35:00 -1.3 C 90 % -2.73 C
69 14-02-2017 05:40:00 -1.3 C 90 % -2.73 C
70 14-02-2017 05:45:00 -1.3 C 90 % -2.73 C
71 14-02-2017 05:50:00 -1.4 C 90 % -2.82 C
72 14-02-2017 05:55:00 -1.4 C 91 % -2.68 C
73 14-02-2017 06:00:00 -1.4 C 91 % -2.68 C
74 14-02-2017 06:05:00 -1.4 C 90 % -2.82 C
75 14-02-2017 06:10:00 -1.5 C 90 % -2.92 C
Sensor: Nr:Datum:Temp:Feuchte:Taupunkt:
Aussen-T/F 76 14-02-2017 06:15:00 -1.6 C 90 % -3.02 C
77 14-02-2017 06:20:00 -1.6 C 91 % -2.87 C
78 14-02-2017 06:25:00 -1.6 C 91 % -2.87 C
79 14-02-2017 06:30:00 -1.7 C 91 % -2.97 C
80 14-02-2017 06:35:00 -1.7 C 91 % -2.97 C
81 14-02-2017 06:40:00 -1.8 C 91 % -3.07 C
82 14-02-2017 06:45:00 -1.8 C 91 % -3.07 C
83 14-02-2017 06:50:00 -1.7 C 92 % -2.83 C
84 14-02-2017 06:55:00 -1.8 C 92 % -2.92 C
85 14-02-2017 07:00:00 -1.8 C 92 % -2.92 C
86 14-02-2017 07:05:00 -1.8 C 91 % -3.07 C
87 14-02-2017 07:10:00 -1.8 C 91 % -3.07 C
88 14-02-2017 07:15:00 -1.9 C 91 % -3.17 C
89 14-02-2017 07:20:00 -1.9 C 91 % -3.17 C
90 14-02-2017 07:25:00 -1.9 C 92 % -3.02 C
91 14-02-2017 07:30:00 -2 C 92 % -3.12 C
92 14-02-2017 07:35:00 -2.1 C 92 % -3.22 C
93 14-02-2017 07:40:00 -2.2 C 92 % -3.32 C
94 14-02-2017 07:45:00 -2.3 C 92 % -3.42 C
95 14-02-2017 07:50:00 -2.3 C 92 % -3.42 C
96 14-02-2017 07:55:00 -2.3 C 92 % -3.42 C
97 14-02-2017 08:00:00 -2.3 C 93 % -3.28 C
98 14-02-2017 08:05:00 -2.3 C 93 % -3.28 C
99 14-02-2017 08:10:00 -2.3 C 93 % -3.28 C
100 14-02-2017 08:15:00 -2.3 C 92 % -3.42 C
Sensor: Nr:Datum:Temp:Feuchte:Taupunkt:
Aussen-T/F 101 14-02-2017 08:20:00 -2.3 C 93 % -3.28 C
102 14-02-2017 08:25:00 -2.3 C 93 % -3.28 C
103 14-02-2017 08:30:00 -2.2 C 93 % -3.18 C
104 14-02-2017 08:35:00 -2.2 C 93 % -3.18 C
105 14-02-2017 08:40:00 -2.2 C 93 % -3.18 C
106 14-02-2017 08:45:00 -2.1 C 93 % -3.08 C
107 14-02-2017 08:50:00 -2.1 C 93 % -3.08 C
108 14-02-2017 08:55:00 -2.1 C 93 % -3.08 C
109 14-02-2017 09:00:00 -2 C 93 % -2.98 C
110 14-02-2017 09:05:00 -1.9 C 94 % -2.73 C
111 14-02-2017 09:10:00 -1.8 C 94 % -2.64 C
112 14-02-2017 09:15:00 -1.7 C 94 % -2.54 C
113 14-02-2017 09:20:00 -1.6 C 94 % -2.44 C
114 14-02-2017 09:25:00 -1.6 C 94 % -2.44 C
115 14-02-2017 09:30:00 -1.6 C 94 % -2.44 C
116 14-02-2017 09:35:00 -1.5 C 94 % -2.34 C
117 14-02-2017 09:40:00 -1.4 C 94 % -2.24 C
118 14-02-2017 09:45:00 -1.3 C 94 % -2.14 C
119 14-02-2017 09:50:00 -1.2 C 94 % -2.04 C
120 14-02-2017 09:55:00 -1 C 94 % -1.84 C
121 14-02-2017 10:00:00 -0.9 C 94 % -1.74 C
122 14-02-2017 10:05:00 -0.8 C 94 % -1.64 C
123 14-02-2017 10:10:00 -0.8 C 93 % -1.79 C
124 14-02-2017 10:15:00 -0.7 C 94 % -1.54 C
125 14-02-2017 10:20:00 -0.6 C 93 % -1.59 C
Sensor: Nr:Datum:Temp:Feuchte:Taupunkt:
Aussen-T/F 126 14-02-2017 10:25:00 -0.4 C 93 % -1.39 C
127 14-02-2017 10:30:00 -0.2 C 93 % -1.19 C
128 14-02-2017 10:35:00 0 C 93 % -0.99 C
129 14-02-2017 10:40:00 0.2 C 92 % -0.94 C
130 14-02-2017 10:45:00 0.3 C 91 % -0.99 C
131 14-02-2017 10:50:00 0.4 C 91 % -0.89 C
132 14-02-2017 10:55:00 0.7 C 92 % -0.45 C
133 14-02-2017 11:00:00 0.8 C 91 % -0.5 C
134 14-02-2017 11:05:00 1.1 C 91 % -0.2 C
135 14-02-2017 11:10:00 1.5 C 91 % 0.19 C
136 14-02-2017 11:15:00 1.9 C 90 % 0.44 C
137 14-02-2017 11:20:00 2.2 C 89 % 0.58 C
138 14-02-2017 11:25:00 2.6 C 86 % 0.5 C
139 14-02-2017 11:30:00 2.8 C 85 % 0.54 C
140 14-02-2017 11:35:00 2.9 C 85 % 0.63 C
141 14-02-2017 11:40:00 2.9 C 84 % 0.47 C
142 14-02-2017 11:45:00 3 C 84 % 0.57 C
143 14-02-2017 11:50:00 3 C 84 % 0.57 C
144 14-02-2017 11:55:00 3.1 C 84 % 0.67 C
145 14-02-2017 12:00:00 3.2 C 84 % 0.76 C
146 14-02-2017 12:05:00 3.3 C 83 % 0.7 C
147 14-02-2017 12:10:00 3.4 C 83 % 0.79 C
148 14-02-2017 12:15:00 3.4 C 83 % 0.79 C
149 14-02-2017 12:20:00 3.4 C 82 % 0.63 C
150 14-02-2017 12:25:00 3.6 C 82 % 0.82 C
Sensor: Nr:Datum:Temp:Feuchte:Taupunkt:
Aussen-T/F 151 14-02-2017 12:30:00 3.8 C 81 % 0.85 C
152 14-02-2017 12:35:00 4.1 C 80 % 0.97 C
153 14-02-2017 12:40:00 4.3 C 79 % 0.99 C
154 14-02-2017 12:45:00 4.3 C 80 % 1.16 C
155 14-02-2017 12:50:00 4.3 C 79 % 0.99 C
156 14-02-2017 12:55:00 4.3 C 78 % 0.81 C
157 14-02-2017 13:00:00 4.4 C 78 % 0.91 C
158 14-02-2017 13:05:00 4.5 C 77 % 0.83 C
159 14-02-2017 13:10:00 5.1 C 72 % 0.48 C
160 14-02-2017 13:15:00 5.5 C 71 % 0.67 C
161 14-02-2017 13:20:00 5.9 C 67 % 0.25 C
162 14-02-2017 13:25:00 6.2 C 68 % 0.75 C
163 14-02-2017 13:30:00 6.6 C 64 % 0.29 C
164 14-02-2017 13:35:00 6.8 C 63 % 0.26 C
165 14-02-2017 13:40:00 6.9 C 63 % 0.36 C
166 14-02-2017 13:45:00 7.1 C 63 % 0.55 C
167 14-02-2017 13:50:00 7.3 C 64 % 0.95 C
168 14-02-2017 13:55:00 7.5 C 62 % 0.7 C
169 14-02-2017 14:00:00 7.5 C 64 % 1.14 C
170 14-02-2017 14:05:00 7.6 C 65 % 1.45 C
171 14-02-2017 14:10:00 7.6 C 66 % 1.67 C
172 14-02-2017 14:15:00 7.5 C 62 % 0.7 C
173 14-02-2017 14:20:00 7.4 C 62 % 0.61 C
174 14-02-2017 14:25:00 7.5 C 64 % 1.14 C
175 14-02-2017 14:30:00 7.4 C 66 % 1.48 C
Sensor: Nr:Datum:Temp:Feuchte:Taupunkt:
Aussen-T/F 176 14-02-2017 14:35:00 7.4 C 63 % 0.83 C
177 14-02-2017 14:40:00 7.5 C 65 % 1.36 C
178 14-02-2017 14:45:00 7.6 C 64 % 1.24 C
179 14-02-2017 14:50:00 7.5 C 65 % 1.36 C
180 14-02-2017 14:55:00 7.6 C 62 % 0.8 C
181 14-02-2017 15:00:00 7.6 C 67 % 1.88 C
182 14-02-2017 15:05:00 7.5 C 66 % 1.57 C
183 14-02-2017 15:10:00 7.4 C 69 % 2.1 C
184 14-02-2017 15:15:00 7.3 C 69 % 2 C
185 14-02-2017 15:20:00 7.2 C 71 % 2.3 C
186 14-02-2017 15:25:00 7 C 71 % 2.11 C
187 14-02-2017 15:30:00 6.9 C 72 % 2.21 C
188 14-02-2017 15:35:00 6.8 C 73 % 2.31 C
189 14-02-2017 15:40:00 6.8 C 73 % 2.31 C
190 14-02-2017 15:45:00 6.8 C 73 % 2.31 C
191 14-02-2017 15:50:00 6.8 C 73 % 2.31 C
192 14-02-2017 15:55:00 7 C 72 % 2.31 C
193 14-02-2017 16:00:00 7.1 C 72 % 2.4 C
194 14-02-2017 16:05:00 7.1 C 71 % 2.21 C
195 14-02-2017 16:10:00 7 C 72 % 2.31 C
196 14-02-2017 16:15:00 6.9 C 73 % 2.4 C
197 14-02-2017 16:20:00 6.8 C 74 % 2.5 C
198 14-02-2017 16:25:00 6.7 C 74 % 2.4 C
199 14-02-2017 16:30:00 6.6 C 74 % 2.31 C
200 14-02-2017 16:35:00 6.4 C 76 % 2.49 C
Sensor: Nr:Datum:Temp:Feuchte:Taupunkt:
Aussen-T/F 201 14-02-2017 16:40:00 6.3 C 76 % 2.39 C
202 14-02-2017 16:45:00 6.3 C 77 % 2.57 C
203 14-02-2017 16:50:00 6.3 C 77 % 2.57 C
204 14-02-2017 16:55:00 6.2 C 77 % 2.48 C
205 14-02-2017 17:00:00 6.1 C 78 % 2.56 C
206 14-02-2017 17:05:00 6 C 78 % 2.46 C
207 14-02-2017 17:10:00 5.9 C 78 % 2.37 C
208 14-02-2017 17:15:00 5.7 C 78 % 2.17 C
209 14-02-2017 17:20:00 5.6 C 79 % 2.25 C
210 14-02-2017 17:25:00 5.4 C 79 % 2.06 C
211 14-02-2017 17:30:00 5.4 C 80 % 2.23 C
212 14-02-2017 17:35:00 5.3 C 80 % 2.14 C
213 14-02-2017 17:40:00 5.1 C 80 % 1.94 C
214 14-02-2017 17:45:00 5 C 80 % 1.84 C
215 14-02-2017 17:50:00 4.9 C 81 % 1.92 C
216 14-02-2017 17:55:00 4.8 C 81 % 1.82 C
217 14-02-2017 18:00:00 4.8 C 80 % 1.65 C
218 14-02-2017 18:05:00 4.7 C 81 % 1.73 C
219 14-02-2017 18:10:00 4.6 C 81 % 1.63 C
220 14-02-2017 18:15:00 4.4 C 81 % 1.43 C
221 14-02-2017 18:20:00 4.2 C 82 % 1.41 C
222 14-02-2017 18:25:00 4.1 C 83 % 1.48 C
223 14-02-2017 18:30:00 4.1 C 83 % 1.48 C
224 14-02-2017 18:35:00 4 C 83 % 1.38 C
225 14-02-2017 18:40:00 3.9 C 83 % 1.28 C
Sensor: Nr:Datum:Temp:Feuchte:Taupunkt:
Aussen-T/F 226 14-02-2017 18:45:00 3.8 C 83 % 1.19 C
227 14-02-2017 18:50:00 3.7 C 83 % 1.09 C
228 14-02-2017 18:55:00 3.7 C 84 % 1.25 C
229 14-02-2017 19:00:00 3.7 C 83 % 1.09 C
230 14-02-2017 19:05:00 3.6 C 84 % 1.16 C
231 14-02-2017 19:10:00 3.4 C 84 % 0.96 C
232 14-02-2017 19:15:00 3.3 C 84 % 0.86 C
233 14-02-2017 19:20:00 3.3 C 85 % 1.03 C
234 14-02-2017 19:25:00 3.2 C 85 % 0.93 C
235 14-02-2017 19:30:00 3.2 C 85 % 0.93 C
236 14-02-2017 19:35:00 3.2 C 85 % 0.93 C
237 14-02-2017 19:40:00 3.2 C 85 % 0.93 C
238 14-02-2017 19:45:00 3.1 C 84 % 0.67 C
239 14-02-2017 19:50:00 2.9 C 85 % 0.63 C
240 14-02-2017 19:55:00 2.8 C 85 % 0.54 C
241 14-02-2017 20:00:00 2.8 C 86 % 0.7 C
242 14-02-2017 20:05:00 2.8 C 86 % 0.7 C
243 14-02-2017 20:10:00 2.7 C 85 % 0.44 C
244 14-02-2017 20:15:00 2.5 C 85 % 0.24 C
245 14-02-2017 20:20:00 2.3 C 86 % 0.21 C
246 14-02-2017 20:25:00 2.2 C 86 % 0.11 C
247 14-02-2017 20:30:00 1.9 C 86 % -0.19 C
248 14-02-2017 20:35:00 1.7 C 87 % -0.23 C
249 14-02-2017 20:40:00 1.6 C 87 % -0.32 C
250 14-02-2017 20:45:00 1.4 C 88 % -0.36 C
Sensor: Nr:Datum:Temp:Feuchte:Taupunkt:
Aussen-T/F 251 14-02-2017 20:50:00 1.2 C 88 % -0.56 C
252 14-02-2017 20:55:00 1.1 C 88 % -0.66 C
253 14-02-2017 21:00:00 0.9 C 89 % -0.7 C
254 14-02-2017 21:05:00 0.9 C 89 % -0.7 C
255 14-02-2017 21:10:00 0.8 C 89 % -0.8 C
256 14-02-2017 21:15:00 0.8 C 90 % -0.65 C
257 14-02-2017 21:20:00 0.7 C 90 % -0.75 C
258 14-02-2017 21:25:00 0.6 C 90 % -0.85 C
259 14-02-2017 21:30:00 0.4 C 90 % -1.04 C
260 14-02-2017 21:35:00 0.4 C 90 % -1.04 C
261 14-02-2017 21:40:00 0.4 C 91 % -0.89 C
262 14-02-2017 21:45:00 0.3 C 91 % -0.99 C
263 14-02-2017 21:50:00 0.3 C 91 % -0.99 C
264 14-02-2017 21:55:00 0.2 C 91 % -1.09 C
265 14-02-2017 22:00:00 0.2 C 91 % -1.09 C
266 14-02-2017 22:05:00 0.3 C 92 % -0.84 C
267 14-02-2017 22:10:00 0.3 C 92 % -0.84 C
268 14-02-2017 22:15:00 0.4 C 92 % -0.74 C
269 14-02-2017 22:20:00 0.4 C 92 % -0.74 C
270 14-02-2017 22:25:00 0.3 C 91 % -0.99 C
271 14-02-2017 22:30:00 0.2 C 90 % -1.24 C
272 14-02-2017 22:35:00 0.2 C 91 % -1.09 C
273 14-02-2017 22:40:00 0.2 C 91 % -1.09 C
274 14-02-2017 22:45:00 0.2 C 91 % -1.09 C
275 14-02-2017 22:50:00 0.1 C 91 % -1.19 C
Sensor: Nr:Datum:Temp:Feuchte:Taupunkt:
Aussen-T/F 276 14-02-2017 22:55:00 0.1 C 91 % -1.19 C
277 14-02-2017 23:00:00 0 C 91 % -1.29 C
278 14-02-2017 23:05:00 0 C 91 % -1.29 C
279 14-02-2017 23:10:00 0.1 C 92 % -1.04 C
280 14-02-2017 23:15:00 0.1 C 91 % -1.19 C
281 14-02-2017 23:20:00 0.1 C 91 % -1.19 C
282 14-02-2017 23:25:00 0 C 91 % -1.29 C
283 14-02-2017 23:30:00 -0.1 C 91 % -1.39 C
284 14-02-2017 23:35:00 -0.2 C 91 % -1.49 C
285 14-02-2017 23:40:00 -0.3 C 91 % -1.59 C
286 14-02-2017 23:45:00 -0.3 C 91 % -1.59 C
287 14-02-2017 23:50:00 -0.4 C 91 % -1.69 C
288 14-02-2017 23:55:00 -0.5 C 91 % -1.78 C

Legende:
   Min
   Max


Maximal/Minimal-Werte vom 14.02.2017 - 14.02.2017

Sensor Min Max Avg
Temp
(Aussen-T/F)
-2.3 °C
14-02-2017  07:45:00
7.6 °C
14-02-2017  14:05:00
1.66 °C
Feuchte
(Aussen-T/F)
62 %
14-02-2017  13:55:00
94 %
14-02-2017  09:05:00
85.08 %
Taupunkt
(Aussen-T/F)
-3.42 C
14-02-2017  07:45:00
2.57 C
14-02-2017  16:45:00
-0.66 C

Die Daten stammen von einer Davis Vantage Pro 2 Wetter-Station und werden unter Linux mit der Software wview2wettercgi und aufbereitet. Alle Angaben erfolgen ohne Gewähr für ihre Vollständigkeit oder Richtigkeit.
Kontakt: Rainer Krienke krienke@uni-koblenz.de . Meine Webseiten an der Uni Koblenz oder privat.
Version: $Revision: 0.78 $